Time;durP1;ratioP1;P1;durP2;ratioP2;P2;SDS_P1;SDS_P2;PMS_P1;PMS_P2;Temp;Humidity;BMP_temperature;BMP_pressure;BME280_temperature;BME280_humidity;BME280_pressure;Samples;Min_cycle;Max_cycle;Signal;HPM_P1;HPM_P2
2022/01/21 00:03:12;;;;;;;4.80;2.35;;;;;;;-1.55;69.27;99842.68;3273788;84;21019;-72
2022/01/21 00:08:03;;;;;;;3.65;2.40;;;;;;;-1.56;69.24;99862.20;3252663;84;20961;-73
2022/01/21 00:12:56;;;;;;;4.53;2.10;;;;;;;-1.59;69.00;99853.49;3274893;86;21546;-73
2022/01/21 00:17:47;;;;;;;4.28;1.98;;;;;;;-1.61;69.01;99861.09;3244430;87;20962;-73
2022/01/21 00:32:57;;;;;;;3.80;2.22;;;;;;;-1.66;68.85;99886.73;3257645;87;21014;-73
2022/01/21 00:37:50;;;;;;;4.37;1.55;;;;;;;-1.65;69.06;99887.19;3200718;86;21229;-73
2022/01/21 00:47:33;;;;;;;4.35;2.30;;;;;;;-1.65;69.24;99882.09;3215222;86;22251;-72
2022/01/21 00:52:24;;;;;;;3.55;1.87;;;;;;;-1.65;69.20;99879.55;3263939;86;20990;-72
2022/01/21 00:57:15;;;;;;;5.28;1.65;;;;;;;-1.65;68.60;99873.58;3222542;87;21130;-74
2022/01/21 01:02:06;;;;;;;4.70;2.10;;;;;;;-1.67;68.58;99888.80;3203014;86;21992;-72
2022/01/21 01:06:58;;;;;;;4.75;2.27;;;;;;;-1.71;68.62;99900.03;3251681;85;20985;-73
2022/01/21 01:12:16;;;;;;;4.70;2.37;;;;;;;-1.76;68.61;99875.57;3252200;86;21023;-73
2022/01/21 01:21:58;;;;;;;6.45;2.30;;;;;;;-1.83;68.59;99874.36;3288041;86;21527;-73
2022/01/21 01:31:59;;;;;;;6.08;2.02;;;;;;;-1.94;68.47;99890.35;3271928;85;20990;-72
2022/01/21 01:36:50;;;;;;;5.10;2.27;;;;;;;-1.97;67.95;99876.58;3260376;86;21027;-73
2022/01/21 01:41:53;;;;;;;5.42;2.30;;;;;;;-1.99;68.53;99886.68;3283657;85;21245;-72
2022/01/21 01:51:48;;;;;;;6.15;2.47;;;;;;;-2.11;68.00;99883.09;3265855;86;21332;-73
2022/01/21 01:56:48;;;;;;;4.85;1.75;;;;;;;-2.16;68.63;99876.88;3284283;86;21007;-72
2022/01/21 02:01:39;;;;;;;2.87;1.57;;;;;;;-2.22;68.21;99870.16;3304690;85;20984;-73
2022/01/21 02:06:31;;;;;;;3.08;1.70;;;;;;;-2.26;68.46;99872.06;3280587;85;21078;-72
2022/01/21 02:11:22;;;;;;;4.75;2.08;;;;;;;-2.30;68.45;99876.11;3230639;86;20980;-72
2022/01/21 02:26:23;;;;;;;2.00;1.80;;;;;;;-2.30;68.87;99868.47;3239704;86;21024;-73
2022/01/21 02:31:14;;;;;;;5.78;1.80;;;;;;;-2.25;68.78;99866.56;3252470;85;20990;-73
2022/01/21 02:36:06;;;;;;;2.35;1.30;;;;;;;-2.21;68.61;99862.14;3227392;86;20967;-73
2022/01/21 02:40:57;;;;;;;3.33;1.50;;;;;;;-2.23;68.65;99857.36;3263906;87;21313;-72
2022/01/21 02:45:48;;;;;;;3.92;1.87;;;;;;;-2.27;68.65;99852.50;3251123;87;21531;-73
2022/01/21 02:50:40;;;;;;;6.30;1.65;;;;;;;-2.31;68.81;99859.09;3215038;86;21509;-73
2022/01/21 02:55:32;;;;;;;2.42;1.90;;;;;;;-2.37;68.97;99853.66;3288682;86;21025;-73
2022/01/21 03:00:23;;;;;;;4.85;2.62;;;;;;;-2.40;69.17;99852.61;3253272;87;21276;-73
2022/01/21 03:05:16;;;;;;;4.78;1.60;;;;;;;-2.44;69.28;99854.11;3255294;87;22079;-73
2022/01/21 03:10:08;;;;;;;4.67;1.77;;;;;;;-2.45;69.32;99869.30;3310144;84;22096;-73
2022/01/21 03:14:59;;;;;;;5.03;2.27;;;;;;;-2.49;69.39;99868.25;3231827;85;20932;-72
2022/01/21 03:19:51;;;;;;;2.75;1.52;;;;;;;-2.51;69.46;99877.48;3284302;86;25511;-73
2022/01/21 03:24:42;;;;;;;3.47;1.50;;;;;;;-2.54;69.56;99884.93;3282194;86;21177;-73
2022/01/21 03:29:33;;;;;;;3.42;1.77;;;;;;;-2.51;69.76;99885.11;3305127;85;22615;-72
2022/01/21 03:34:24;;;;;;;7.47;1.87;;;;;;;-2.47;69.74;99879.39;3328998;85;21032;-72
2022/01/21 03:39:17;;;;;;;5.35;1.80;;;;;;;-2.44;69.71;99890.16;3326264;85;21016;-72
2022/01/21 03:44:08;;;;;;;3.05;1.55;;;;;;;-2.46;69.80;99895.16;3257232;85;20963;-73
2022/01/21 03:49:03;;;;;;;3.87;1.50;;;;;;;-2.47;69.91;99902.30;3279745;85;21012;-72
2022/01/21 03:53:53;;;;;;;4.97;1.82;;;;;;;-2.46;70.17;99900.25;3330027;86;21374;-73
2022/01/21 03:58:46;;;;;;;4.33;1.80;;;;;;;-2.39;70.14;99895.98;3285874;85;20983;-72
2022/01/21 04:03:39;;;;;;;3.35;1.25;;;;;;;-2.33;70.12;99905.22;3305938;85;21500;-73
2022/01/21 04:08:31;;;;;;;4.67;2.45;;;;;;;-2.30;70.19;99896.48;3277926;84;21601;-72
2022/01/21 04:13:26;;;;;;;8.60;1.37;;;;;;;-2.25;70.24;99900.57;3329009;85;20990;-73
2022/01/21 04:18:20;;;;;;;4.15;1.90;;;;;;;-2.19;70.31;99902.16;3279186;85;20944;-72
2022/01/21 04:23:15;;;;;;;3.98;1.60;;;;;;;-2.12;70.28;99916.12;3279826;86;22787;-73
2022/01/21 04:28:07;;;;;;;5.87;1.40;;;;;;;-2.08;70.25;99921.85;3286202;85;21005;-72
2022/01/21 04:32:58;;;;;;;4.35;1.70;;;;;;;-2.03;70.31;99920.84;3306372;85;20998;-72
2022/01/21 04:37:59;;;;;;;1.82;1.20;;;;;;;-1.99;70.42;99921.08;3286600;86;21050;-71
2022/01/21 04:47:56;;;;;;;3.17;1.52;;;;;;;-1.92;70.48;99937.17;3318197;85;21046;-72
2022/01/21 04:52:48;;;;;;;8.05;1.90;;;;;;;-1.86;70.53;99935.75;3281950;84;20987;-73
2022/01/21 04:57:56;;;;;;;3.12;1.95;;;;;;;-1.85;70.64;99948.58;3285493;85;21607;-73
2022/01/21 05:02:47;;;;;;;2.87;1.80;;;;;;;-1.82;70.65;99950.03;3279103;85;21110;-73
2022/01/21 05:07:41;;;;;;;5.50;1.90;;;;;;;-1.80;70.72;99937.38;3303373;84;22264;-73
2022/01/21 05:12:32;;;;;;;1.70;1.25;;;;;;;-1.78;70.80;99964.69;3260339;86;21508;-72
2022/01/21 05:17:25;;;;;;;2.60;1.42;;;;;;;-1.75;70.79;99951.25;3237993;84;20988;-72
2022/01/21 05:22:17;;;;;;;4.60;2.25;;;;;;;-1.72;70.91;99970.50;3242339;85;20991;-73
2022/01/21 05:27:12;;;;;;;1.67;1.07;;;;;;;-1.69;70.83;99956.66;3259853;85;20996;-73
2022/01/21 05:32:11;;;;;;;4.35;1.80;;;;;;;-1.66;70.94;99969.58;3284138;85;20980;-73
2022/01/21 05:37:07;;;;;;;2.02;1.20;;;;;;;-1.65;71.00;99963.67;3252686;86;21498;-72
2022/01/21 05:42:02;;;;;;;4.90;2.47;;;;;;;-1.60;71.00;99973.72;3266174;86;20979;-72
2022/01/21 05:47:13;;;;;;;4.28;1.42;;;;;;;-1.59;71.03;99964.38;3271375;86;20952;-73
2022/01/21 05:52:30;;;;;;;3.40;1.10;;;;;;;-1.58;71.11;99960.65;3311615;84;21002;-73
2022/01/21 05:57:19;;;;;;;2.87;1.40;;;;;;;-1.55;71.09;99971.02;3303063;85;21011;-73
2022/01/21 06:02:12;;;;;;;2.42;1.60;;;;;;;-1.52;71.16;99973.25;3243480;85;21016;-72
2022/01/21 06:07:06;;;;;;;2.02;1.20;;;;;;;-1.49;71.17;99984.89;3289113;85;21015;-72
2022/01/21 06:11:57;;;;;;;3.37;1.67;;;;;;;-1.48;71.17;99970.09;3237185;86;20963;-71
2022/01/21 06:16:48;;;;;;;2.85;1.55;;;;;;;-1.47;71.35;99971.83;3197962;87;21035;-73
2022/01/21 06:21:39;;;;;;;5.80;1.92;;;;;;;-1.46;71.29;99983.80;3198794;86;26227;-72
2022/01/21 06:26:30;;;;;;;7.00;2.85;;;;;;;-1.48;71.21;99984.11;3187646;86;21130;-72
2022/01/21 06:31:21;;;;;;;3.45;1.98;;;;;;;-1.51;71.07;99990.31;3187862;86;20912;-72
2022/01/21 06:36:12;;;;;;;4.35;1.80;;;;;;;-1.54;71.21;99997.38;3232421;86;20940;-72
2022/01/21 06:41:04;;;;;;;2.83;1.80;;;;;;;-1.55;71.30;99995.23;3212387;86;21544;-71
2022/01/21 06:45:55;;;;;;;6.33;3.12;;;;;;;-1.54;71.47;100019.95;3222725;86;21580;-73
2022/01/21 06:50:46;;;;;;;5.37;2.85;;;;;;;-1.48;71.39;100027.45;3204447;86;21486;-71
2022/01/21 06:55:38;;;;;;;7.05;3.45;;;;;;;-1.45;71.41;100026.33;3200898;86;20932;-72
2022/01/21 07:00:29;;;;;;;5.35;3.20;;;;;;;-1.44;71.45;100031.92;3231949;86;20979;-73
2022/01/21 07:05:29;;;;;;;6.33;2.40;;;;;;;-1.40;71.47;100033.83;3226642;86;21321;-72
2022/01/21 07:10:20;;;;;;;3.60;2.22;;;;;;;-1.35;71.37;100036.23;3259669;85;21067;-71
2022/01/21 07:15:16;;;;;;;3.02;2.00;;;;;;;-1.27;71.01;100048.11;3284543;85;21453;-71
2022/01/21 07:20:08;;;;;;;6.10;2.30;;;;;;;-1.21;71.36;100040.80;3258371;85;20956;-71
2022/01/21 07:24:59;;;;;;;4.22;1.95;;;;;;;-1.16;71.38;100049.17;3259794;85;21643;-71
2022/01/21 07:29:50;;;;;;;5.75;2.17;;;;;;;-1.11;71.08;100060.02;3262582;85;21027;-71
2022/01/21 07:34:41;;;;;;;8.73;2.67;;;;;;;-1.06;71.24;100059.45;3268759;85;22639;-71
2022/01/21 07:39:32;;;;;;;5.03;2.35;;;;;;;-0.93;70.96;100064.83;3278970;85;21025;-71
2022/01/21 07:44:23;;;;;;;4.83;3.27;;;;;;;-0.83;70.88;100073.42;3279725;85;21561;-71
2022/01/21 07:49:16;;;;;;;5.45;2.55;;;;;;;-0.65;70.55;100059.45;3292936;85;21557;-73
2022/01/21 07:54:08;;;;;;;2.98;2.20;;;;;;;-0.57;70.17;100064.98;3278478;85;21538;-72
2022/01/21 07:59:06;;;;;;;3.72;1.95;;;;;;;-0.59;70.19;100071.28;3280142;85;21433;-72
2022/01/21 08:03:57;;;;;;;3.58;2.15;;;;;;;-0.69;70.18;100069.45;3259126;84;21029;-72
2022/01/21 08:08:48;;;;;;;5.50;2.90;;;;;;;-0.77;70.13;100075.41;3276678;85;20992;-71
2022/01/21 08:13:39;;;;;;;5.30;2.20;;;;;;;-0.79;70.20;100080.47;3265037;84;20987;-71
2022/01/21 08:18:31;;;;;;;5.35;2.47;;;;;;;-0.79;70.13;100074.08;3263366;86;21173;-71
2022/01/21 08:23:22;;;;;;;6.62;2.65;;;;;;;-0.79;70.05;100079.56;3261700;85;21060;-71
2022/01/21 08:28:13;;;;;;;5.72;2.85;;;;;;;-0.70;69.98;100067.68;3265463;85;21505;-71
2022/01/21 08:33:05;;;;;;;7.72;3.20;;;;;;;-0.67;69.64;100071.67;3261727;85;21020;-71
2022/01/21 08:37:56;;;;;;;3.52;1.95;;;;;;;-0.64;69.63;100074.40;3195423;85;21227;-74
2022/01/21 08:42:47;;;;;;;5.30;2.17;;;;;;;-0.37;69.43;100060.00;3258939;86;21050;-70
2022/01/21 08:47:42;;;;;;;4.20;2.08;;;;;;;0.26;68.38;100072.89;3219986;86;21520;-75
2022/01/21 08:52:37;;;;;;;3.35;1.75;;;;;;;0.71;67.59;100069.86;3261725;86;20956;-70
2022/01/21 08:57:27;;;;;;;4.37;2.00;;;;;;;0.95;67.03;100076.52;3298684;84;21038;-73
2022/01/21 09:02:18;;;;;;;3.47;1.62;;;;;;;1.17;66.44;100073.64;3247901;85;21082;-74
2022/01/21 09:07:10;;;;;;;1.72;1.32;;;;;;;1.25;65.35;100082.52;3196944;86;21540;-82
2022/01/21 09:12:01;;;;;;;3.95;1.70;;;;;;;1.23;65.53;100079.02;3271093;85;21836;-80
2022/01/21 09:16:53;;;;;;;3.47;1.80;;;;;;;1.27;64.96;100084.73;3201163;86;21014;-84
2022/01/21 09:21:45;;;;;;;4.08;1.90;;;;;;;1.40;64.89;100071.67;3205647;86;20991;-76
2022/01/21 09:26:37;;;;;;;3.70;2.00;;;;;;;1.53;64.34;100097.00;3244866;86;20955;-78
2022/01/21 09:31:28;;;;;;;2.98;1.65;;;;;;;1.61;64.47;100090.94;3217778;86;20920;-73
2022/01/21 09:36:19;;;;;;;4.97;1.87;;;;;;;1.44;64.26;100095.32;3240464;87;21032;-73
2022/01/21 09:41:11;;;;;;;6.25;2.87;;;;;;;1.46;64.55;100102.66;3206486;86;21451;-72
2022/01/21 09:46:05;;;;;;;3.27;2.45;;;;;;;1.67;64.60;100096.73;3240063;86;20996;-76
2022/01/21 09:50:59;;;;;;;5.47;2.83;;;;;;;1.59;64.72;100107.05;3243241;86;20967;-74
2022/01/21 09:55:50;;;;;;;5.12;2.90;;;;;;;1.52;64.78;100117.42;3216994;86;20982;-74
2022/01/21 10:00:42;;;;;;;4.15;2.52;;;;;;;1.53;64.87;100105.09;3225543;86;21136;-73
2022/01/21 10:05:34;;;;;;;5.10;2.77;;;;;;;1.67;64.79;100100.58;3270057;86;20991;-73
2022/01/21 10:10:25;;;;;;;4.28;2.50;;;;;;;1.97;64.40;100091.13;3237226;84;21023;-80
2022/01/21 10:15:17;;;;;;;5.58;2.90;;;;;;;2.19;63.73;100091.20;3323475;84;20971;-73
2022/01/21 10:20:24;;;;;;;3.60;2.40;;;;;;;1.98;63.95;100087.76;3293664;85;21543;-81
2022/01/21 10:25:16;;;;;;;6.83;2.50;;;;;;;1.93;63.94;100088.84;3296092;85;20983;-74
2022/01/21 10:30:28;;;;;;;5.83;2.60;;;;;;;2.13;63.50;100102.50;3256732;84;21086;-73
2022/01/21 10:35:30;;;;;;;7.10;2.62;;;;;;;2.81;62.63;100093.63;3275643;84;21607;-80
2022/01/21 10:40:21;;;;;;;6.40;3.33;;;;;;;3.34;62.11;100078.02;3296443;85;21019;-77
2022/01/21 10:45:15;;;;;;;8.68;3.67;;;;;;;3.43;61.29;100078.76;3251165;86;21001;-80
2022/01/21 10:50:15;;;;;;;6.17;2.52;;;;;;;3.70;61.58;100075.02;3266733;84;22040;-76
2022/01/21 10:55:26;;;;;;;5.83;2.27;;;;;;;4.89;59.75;100073.20;3285996;84;21466;-76
2022/01/21 11:00:17;;;;;;;6.70;2.58;;;;;;;4.82;58.12;100075.56;3291931;84;21142;-80
2022/01/21 11:05:17;;;;;;;3.77;2.25;;;;;;;5.23;58.07;100071.60;3315461;84;21784;-82
2022/01/21 11:10:06;;;;;;;4.85;2.47;;;;;;;5.08;57.65;100061.75;3299559;84;21246;-79
2022/01/21 11:15:01;;;;;;;4.65;2.72;;;;;;;5.52;56.20;100061.22;3261045;85;22238;-76
2022/01/21 11:20:15;;;;;;;6.42;2.75;;;;;;;4.71;57.62;100084.25;3248455;85;21544;-82
2022/01/21 11:25:02;;;;;;;4.47;2.55;;;;;;;4.16;57.33;100075.66;3266553;85;21032;-74
2022/01/21 11:29:54;;;;;;;3.65;1.98;;;;;;;3.51;58.51;100089.34;3279111;85;20948;-74
2022/01/21 11:34:46;;;;;;;4.05;1.98;;;;;;;3.09;59.15;100102.36;3260892;84;21046;-75
2022/01/21 11:39:39;;;;;;;3.62;1.92;;;;;;;2.83;59.82;100103.55;3242328;85;22354;-74
2022/01/21 11:44:31;;;;;;;5.42;2.72;;;;;;;2.39;60.02;100089.84;3269014;85;21098;-75
2022/01/21 11:49:23;;;;;;;5.12;2.15;;;;;;;2.13;60.66;100108.02;3264203;85;21450;-77
2022/01/21 11:54:20;;;;;;;3.62;2.08;;;;;;;1.83;60.45;100100.41;3287902;85;21540;-73
2022/01/21 11:59:37;;;;;;;3.42;1.80;;;;;;;1.60;60.49;100103.69;3286257;85;20972;-74
2022/01/21 12:04:41;;;;;;;6.22;2.25;;;;;;;1.48;61.12;100099.77;3299328;84;21898;-88
2022/01/21 12:10:03;;;;;;;3.08;1.77;;;;;;;1.55;61.31;100103.47;3271524;84;20971;-80
2022/01/21 12:15:01;;;;;;;4.62;2.58;;;;;;;1.37;61.12;100118.05;3281904;84;21049;-79
2022/01/21 12:19:49;;;;;;;3.98;2.52;;;;;;;1.14;61.56;100112.39;3298606;84;20968;-75
2022/01/21 12:24:54;;;;;;;3.02;2.08;;;;;;;1.03;61.51;100122.52;3292969;85;20995;-82
2022/01/21 12:29:45;;;;;;;6.97;2.80;;;;;;;0.92;62.05;100118.60;3293120;84;21438;-81
2022/01/21 12:35:02;;;;;;;3.65;2.00;;;;;;;0.90;62.29;100122.78;3268818;84;20976;-80
2022/01/21 12:39:53;;;;;;;6.03;2.65;;;;;;;0.81;62.40;100128.34;3322226;84;20952;-83
2022/01/21 12:44:45;;;;;;;5.58;2.17;;;;;;;0.73;62.26;100122.88;3268578;85;21497;-73
2022/01/21 12:49:48;;;;;;;4.60;2.10;;;;;;;0.72;62.50;100124.95;3275176;85;20952;-76
2022/01/21 13:00:08;;;;;;;4.70;2.42;;;;;;;0.59;62.59;100128.13;3251856;86;21549;-80
2022/01/21 13:05:27;;;;;;;10.25;2.17;;;;;;;0.53;62.48;100126.16;3297529;86;21029;-75
2022/01/21 13:10:27;;;;;;;3.20;1.90;;;;;;;0.50;62.46;100126.00;3316625;84;21265;-73
2022/01/21 13:15:18;;;;;;;4.35;1.87;;;;;;;0.49;62.86;100138.34;3266337;84;21098;-74
2022/01/21 13:20:10;;;;;;;4.78;2.45;;;;;;;0.55;62.73;100134.78;3270677;84;21442;-73
2022/01/21 13:25:09;;;;;;;2.15;1.57;;;;;;;0.62;62.59;100125.31;3275311;85;20987;-74
2022/01/21 13:30:07;;;;;;;4.80;2.17;;;;;;;0.64;62.59;100132.66;3278244;85;22178;-73
2022/01/21 13:35:18;;;;;;;5.00;2.17;;;;;;;0.71;63.04;100144.06;3296260;84;20987;-73
2022/01/21 13:40:10;;;;;;;5.00;2.08;;;;;;;0.78;62.75;100137.56;3271097;85;21652;-75
2022/01/21 13:45:08;;;;;;;3.00;2.02;;;;;;;0.70;62.86;100140.64;3263941;84;20960;-73
2022/01/21 13:50:05;;;;;;;6.10;2.20;;;;;;;0.64;63.17;100149.70;3268258;85;20992;-75
2022/01/21 13:54:56;;;;;;;4.33;2.17;;;;;;;0.55;63.27;100147.57;3311077;85;20975;-80
2022/01/21 13:59:47;;;;;;;4.53;1.87;;;;;;;0.46;62.76;100161.20;3266735;84;22435;-75
2022/01/21 14:04:40;;;;;;;4.55;1.92;;;;;;;0.37;63.34;100156.10;3285326;85;21738;-72
2022/01/21 14:09:31;;;;;;;4.78;2.22;;;;;;;0.31;63.36;100160.93;3246523;86;22119;-72
2022/01/21 14:14:23;;;;;;;7.25;2.50;;;;;;;0.26;63.55;100170.05;3248104;86;21087;-77
2022/01/21 14:19:19;;;;;;;3.67;2.62;;;;;;;0.21;63.81;100169.35;3279134;86;20992;-78
2022/01/21 14:24:16;;;;;;;6.05;3.40;;;;;;;0.17;63.83;100164.48;3274713;84;21222;-77
2022/01/21 14:29:09;;;;;;;3.42;2.10;;;;;;;0.13;63.93;100170.26;3291210;84;20973;-76
2022/01/21 14:34:08;;;;;;;5.80;3.40;;;;;;;0.09;63.86;100170.50;3266557;85;21256;-79
2022/01/21 14:39:21;;;;;;;7.50;2.12;;;;;;;0.05;64.09;100177.92;3263724;85;20956;-76
2022/01/21 14:44:13;;;;;;;4.22;2.12;;;;;;;0.01;64.33;100186.25;3286773;84;21023;-77
2022/01/21 14:49:08;;;;;;;6.60;3.08;;;;;;;-0.03;64.27;100193.75;3237355;85;21455;-72
2022/01/21 14:54:12;;;;;;;4.30;2.25;;;;;;;-0.06;64.33;100187.20;3269475;84;20991;-73
2022/01/21 14:59:15;;;;;;;4.55;2.17;;;;;;;-0.08;64.52;100207.11;3240577;84;21528;-70
2022/01/21 15:04:16;;;;;;;4.78;2.85;;;;;;;-0.13;64.53;100197.91;3250653;84;21493;-72
2022/01/21 15:09:06;;;;;;;3.98;2.30;;;;;;;-0.13;64.84;100200.47;3274325;84;21056;-74
2022/01/21 15:14:34;;;;;;;5.37;2.67;;;;;;;-0.13;64.97;100203.02;3301555;84;20971;-75
2022/01/21 15:19:44;;;;;;;6.05;2.50;;;;;;;-0.14;64.89;100179.94;3238419;84;20952;-73
2022/01/21 15:24:37;;;;;;;6.70;2.80;;;;;;;-0.19;64.86;100195.05;3250126;84;22157;-74
2022/01/21 15:29:28;;;;;;;12.13;3.20;;;;;;;-0.20;65.11;100206.95;3262998;86;21648;-74
2022/01/21 15:34:20;;;;;;;8.68;2.72;;;;;;;-0.20;65.15;100212.45;3267066;84;22185;-74
2022/01/21 15:39:15;;;;;;;6.62;2.12;;;;;;;-0.20;65.12;100218.83;3270039;85;20968;-73
2022/01/21 15:44:06;;;;;;;3.45;1.77;;;;;;;-0.22;65.09;100220.44;3285795;85;21014;-73
2022/01/21 15:48:58;;;;;;;4.12;2.58;;;;;;;-0.22;65.13;100216.60;3274726;84;21195;-73
2022/01/21 15:53:49;;;;;;;6.50;2.10;;;;;;;-0.24;65.16;100200.32;3292712;84;21039;-75
2022/01/21 15:58:41;;;;;;;8.63;2.80;;;;;;;-0.24;65.31;100218.20;3263460;84;36767;-74
2022/01/21 16:03:38;;;;;;;5.53;2.40;;;;;;;-0.22;65.23;100225.55;3267634;84;20987;-75
2022/01/21 16:08:25;;;;;;;5.78;2.25;;;;;;;-0.23;65.26;100226.36;3296943;84;21106;-74
2022/01/21 16:13:17;;;;;;;4.47;2.10;;;;;;;-0.25;65.26;100233.94;3262327;86;20975;-73
2022/01/21 16:18:08;;;;;;;3.77;1.87;;;;;;;-0.26;64.94;100239.84;3256154;86;21564;-72
2022/01/21 16:22:59;;;;;;;6.20;3.05;;;;;;;-0.27;65.16;100240.66;3222785;86;21003;-72
2022/01/21 16:27:50;;;;;;;3.85;1.98;;;;;;;-0.27;65.26;100232.09;3217475;86;21234;-74
2022/01/21 16:32:41;;;;;;;3.67;2.27;;;;;;;-0.28;65.21;100237.61;3215420;86;20976;-73
2022/01/21 16:37:33;;;;;;;5.08;2.52;;;;;;;-0.31;65.25;100232.73;3285654;86;21541;-71
2022/01/21 16:42:24;;;;;;;3.47;2.20;;;;;;;-0.32;65.15;100241.18;3211997;86;21042;-73
2022/01/21 16:47:16;;;;;;;5.67;2.37;;;;;;;-0.37;65.37;100239.68;3222900;86;21112;-74
2022/01/21 16:52:07;;;;;;;4.45;2.27;;;;;;;-0.40;65.47;100235.67;3230093;87;21003;-73
2022/01/21 16:56:58;;;;;;;5.45;2.85;;;;;;;-0.43;65.53;100224.91;3231048;86;21011;-73
2022/01/21 17:01:50;;;;;;;3.92;3.12;;;;;;;-0.44;65.68;100235.91;3220837;86;21808;-73
2022/01/21 17:06:44;;;;;;;10.20;3.37;;;;;;;-0.44;65.57;100234.64;3278553;86;22156;-73
2022/01/21 17:11:36;;;;;;;4.75;2.52;;;;;;;-0.45;65.70;100232.90;3264113;85;20999;-73
2022/01/21 17:16:27;;;;;;;5.90;2.92;;;;;;;-0.45;65.67;100248.22;3242435;85;20991;-72
2022/01/21 17:21:18;;;;;;;4.30;2.50;;;;;;;-0.46;65.72;100243.89;3227236;85;20985;-73
2022/01/21 17:26:10;;;;;;;5.47;2.47;;;;;;;-0.44;65.77;100247.41;3247318;85;21112;-72
2022/01/21 17:31:01;;;;;;;3.60;2.12;;;;;;;-0.41;65.80;100239.05;3247727;85;21486;-73
2022/01/21 17:35:54;;;;;;;4.78;2.70;;;;;;;-0.40;65.75;100239.09;3248333;85;20933;-72
2022/01/21 17:40:45;;;;;;;3.60;1.90;;;;;;;-0.41;65.72;100239.92;3248260;85;21017;-74
2022/01/21 17:45:38;;;;;;;8.35;2.00;;;;;;;-0.39;65.62;100243.42;3272132;85;21553;-73
2022/01/21 17:50:30;;;;;;;3.20;2.40;;;;;;;-0.40;65.19;100240.37;3297552;85;21199;-74
2022/01/21 17:55:22;;;;;;;4.05;1.90;;;;;;;-0.42;65.28;100230.48;3223664;85;20950;-73
2022/01/21 18:00:17;;;;;;;4.12;2.47;;;;;;;-0.41;65.19;100233.94;3294211;85;20965;-73
2022/01/21 18:05:09;;;;;;;4.47;2.55;;;;;;;-0.42;65.16;100224.09;3280082;85;20949;-73
2022/01/21 18:10:08;;;;;;;5.25;2.70;;;;;;;-0.44;64.88;100230.80;3255618;85;21489;-73
2022/01/21 18:14:53;;;;;;;3.95;2.12;;;;;;;-0.43;64.73;100221.08;3227296;86;20994;-75
2022/01/21 18:19:46;;;;;;;3.95;2.22;;;;;;;-0.42;64.65;100239.42;3231349;86;20988;-73
2022/01/21 18:24:37;;;;;;;3.87;2.52;;;;;;;-0.43;64.04;100237.69;3244784;86;20928;-72
2022/01/21 18:29:29;;;;;;;4.35;1.90;;;;;;;-0.45;64.33;100237.10;3194111;86;20988;-73
2022/01/21 18:34:20;;;;;;;7.20;3.08;;;;;;;-0.47;64.01;100235.73;3230160;87;21513;-74
2022/01/21 18:39:14;;;;;;;5.15;2.60;;;;;;;-0.48;64.38;100244.22;3219318;87;21958;-73
2022/01/21 18:44:06;;;;;;;3.47;2.50;;;;;;;-0.48;64.36;100234.41;3239100;86;21007;-73
2022/01/21 18:49:01;;;;;;;3.85;2.05;;;;;;;-0.49;64.33;100235.19;3258430;87;20936;-72
2022/01/21 18:53:50;;;;;;;3.27;1.85;;;;;;;-0.52;64.05;100241.03;3259456;86;21014;-73
2022/01/21 18:58:49;;;;;;;3.70;1.92;;;;;;;-0.54;64.22;100246.83;3210966;86;20966;-74
2022/01/21 19:03:40;;;;;;;10.78;5.50;;;;;;;-0.59;64.25;100247.84;3250323;86;21560;-73
2022/01/21 19:08:31;;;;;;;6.92;2.22;;;;;;;-0.64;63.97;100254.41;3228195;86;21229;-73
2022/01/21 19:13:23;;;;;;;3.67;2.15;;;;;;;-0.72;63.81;100255.24;3244357;86;22370;-73
2022/01/21 19:18:15;;;;;;;4.85;2.37;;;;;;;-0.82;63.76;100264.09;3326354;84;20963;-72
2022/01/21 19:23:10;;;;;;;4.10;1.82;;;;;;;-0.86;63.60;100264.72;3308657;84;21036;-72
2022/01/21 19:28:04;;;;;;;3.47;1.90;;;;;;;-0.87;63.92;100259.53;3277128;85;21625;-73
2022/01/21 19:32:55;;;;;;;2.42;1.95;;;;;;;-0.86;63.86;100266.00;3261713;86;21010;-72
2022/01/21 19:37:48;;;;;;;7.37;3.47;;;;;;;-0.84;63.68;100269.88;3305989;84;20967;-74
2022/01/21 19:42:39;;;;;;;5.62;2.83;;;;;;;-0.84;63.90;100268.23;3326704;84;20992;-73
2022/01/21 19:48:20;;;;;;;7.03;2.62;;;;;;;-0.82;64.03;100264.09;3328723;84;21047;-73
2022/01/21 19:52:26;;;;;;;6.42;2.42;;;;;;;-0.83;63.75;100268.70;3278158;84;21527;-73
2022/01/21 19:57:23;;;;;;;5.10;2.92;;;;;;;-0.84;63.79;100268.23;3285213;84;21515;-73
2022/01/21 20:17:13;;;;;;;5.28;2.72;;;;;;;-0.95;63.77;100270.56;3148941;88;27808;-72
2022/01/21 20:22:05;;;;;;;6.83;3.22;;;;;;;-1.01;64.04;100269.83;3140627;88;22281;-72
2022/01/21 20:26:56;;;;;;;5.40;3.12;;;;;;;-1.10;64.16;100280.80;3160376;88;20988;-72
2022/01/21 20:31:51;;;;;;;6.30;2.45;;;;;;;-1.13;64.29;100280.61;3155478;87;21071;-73
2022/01/21 20:36:46;;;;;;;10.78;4.55;;;;;;;-1.19;64.32;100276.05;3233521;84;22410;-71
2022/01/21 20:46:37;;;;;;;7.10;4.15;;;;;;;-1.38;64.78;100280.89;3249006;85;21564;-72
2022/01/21 20:51:28;;;;;;;9.13;4.00;;;;;;;-1.44;64.90;100300.95;3244061;84;21012;-73
2022/01/21 20:56:19;;;;;;;18.60;7.45;;;;;;;-1.50;65.01;100303.12;3293255;84;21756;-72
2022/01/21 21:01:11;;;;;;;11.95;4.28;;;;;;;-1.57;65.19;100305.33;3279609;84;21496;-72
2022/01/21 21:06:02;;;;;;;5.17;2.45;;;;;;;-1.63;65.41;100298.57;3283458;84;21921;-71
2022/01/21 21:11:02;;;;;;;4.55;2.55;;;;;;;-1.62;65.50;100288.88;3208751;84;21003;-72
2022/01/21 21:15:49;;;;;;;8.00;3.05;;;;;;;-1.55;65.61;100292.27;3217813;86;20955;-72
2022/01/21 21:25:52;;;;;;;7.05;2.35;;;;;;;-1.44;65.62;100290.75;3109788;90;21070;-72
2022/01/21 21:30:49;;;;;;;6.95;3.50;;;;;;;-1.45;65.55;100280.05;3101638;89;21076;-72
2022/01/21 22:27:20;;;;;;;6.60;2.80;;;;;;;-1.49;65.81;100287.05;3225167;86;20950;-73
2022/01/21 22:52:42;;;;;;;5.60;2.58;;;;;;;-1.49;65.92;100294.69;3256748;87;21047;-72
2022/01/21 23:02:28;;;;;;;8.03;3.10;;;;;;;-1.48;66.22;100297.34;3234590;87;21558;-72
2022/01/21 23:07:19;;;;;;;5.47;2.05;;;;;;;-1.47;66.33;100273.98;3207747;86;21524;-72
2022/01/21 23:12:13;;;;;;;5.90;3.33;;;;;;;-1.47;66.34;100280.36;3225366;86;21086;-72
2022/01/21 23:17:04;;;;;;;6.55;3.00;;;;;;;-1.48;66.29;100282.04;3273497;84;21003;-73
2022/01/21 23:21:56;;;;;;;6.67;2.75;;;;;;;-1.47;66.52;100288.01;3291339;84;21034;-72
2022/01/21 23:26:54;;;;;;;7.70;2.98;;;;;;;-1.45;66.58;100285.15;3278409;84;20988;-73
2022/01/21 23:31:42;;;;;;;7.60;2.77;;;;;;;-1.46;66.52;100275.76;3323990;84;20971;-72
2022/01/21 23:36:36;;;;;;;3.80;2.10;;;;;;;-1.47;66.58;100268.88;3270152;84;26925;-71
2022/01/21 23:41:27;;;;;;;4.50;2.55;;;;;;;-1.48;66.74;100256.95;3265244;84;21795;-72
2022/01/21 23:46:18;;;;;;;5.92;2.65;;;;;;;-1.47;66.79;100263.78;3253644;84;21073;-72
2022/01/21 23:51:10;;;;;;;5.60;2.72;;;;;;;-1.47;67.05;100268.88;3262536;84;20991;-73
2022/01/21 23:56:04;;;;;;;5.05;2.72;;;;;;;-1.50;67.10;100268.70;3265894;84;21031;-74
